Time;durP1;ratioP1;P1;durP2;ratioP2;P2;SDS_P1;SDS_P2;PMS_P1;PMS_P2;Temp;Humidity;BMP_temperature;BMP_pressure;BME280_temperature;BME280_humidity;BME280_pressure;Samples;Min_cycle;Max_cycle;Signal;HPM_P1;HPM_P2
2022/06/23 00:01:17;;;;;;;6.70;2.00;;;;;;;14.53;74.56;98211.80;105136;1272;75372;-24
2022/06/23 00:03:45;;;;;;;1.50;1.20;;;;;;;14.65;73.50;98210.62;104861;1274;61973;-24
2022/06/23 00:06:45;;;;;;;1.90;1.20;;;;;;;14.67;73.37;98210.36;104675;1274;62796;-24
2022/06/23 00:09:25;;;;;;;1.80;1.50;;;;;;;14.48;74.07;98213.60;104761;1274;76762;-24
2022/06/23 00:11:52;;;;;;;3.70;1.80;;;;;;;14.22;74.97;98212.70;104890;1274;75804;-24
2022/06/23 00:14:20;;;;;;;1.60;1.20;;;;;;;14.01;75.66;98216.21;105063;1274;74132;-24
2022/06/23 00:16:47;;;;;;;1.50;1.30;;;;;;;14.42;74.71;98214.69;104882;1274;60985;-24
2022/06/23 00:19:14;;;;;;;1.40;1.30;;;;;;;14.68;73.28;98213.99;104654;1274;61915;-24
2022/06/23 00:21:44;;;;;;;4.40;1.20;;;;;;;14.56;73.61;98216.21;104669;1272;76576;-24
2022/06/23 00:24:20;;;;;;;1.60;1.50;;;;;;;14.40;74.16;98215.29;104653;1274;77088;-24
2022/06/23 00:26:47;;;;;;;4.50;1.70;;;;;;;14.19;75.15;98216.39;104603;1274;75687;-24
2022/06/23 00:29:16;;;;;;;3.60;1.30;;;;;;;14.02;76.00;98215.55;104788;1274;63642;-24
2022/06/23 00:31:55;;;;;;;1.70;1.20;;;;;;;14.24;75.57;98211.75;104723;1274;62017;-24
2022/06/23 00:34:24;;;;;;;3.00;1.40;;;;;;;14.50;74.13;98215.48;104772;1271;76754;-24
2022/06/23 00:37:05;;;;;;;2.80;1.50;;;;;;;14.46;74.37;98216.25;104603;1274;76036;-24
2022/06/23 00:39:58;;;;;;;3.90;1.40;;;;;;;14.23;75.13;98211.23;104773;1274;74259;-24
2022/06/23 00:42:37;;;;;;;6.30;1.60;;;;;;;14.00;76.31;98216.86;104841;1274;62069;-24
2022/06/23 00:45:10;;;;;;;1.00;0.90;;;;;;;13.83;77.21;98219.71;104623;1274;63394;-24
2022/06/23 00:48:16;;;;;;;3.00;1.20;;;;;;;14.26;75.72;98220.27;104714;1274;75598;-24
2022/06/23 00:50:51;;;;;;;2.10;1.30;;;;;;;14.56;74.56;98220.72;104734;1272;77380;-24
2022/06/23 00:53:23;;;;;;;2.70;1.80;;;;;;;14.43;74.78;98214.75;104643;1274;74365;-24
2022/06/23 00:56:02;;;;;;;2.70;1.30;;;;;;;14.24;75.53;98214.41;104593;1275;63080;-24
2022/06/23 00:58:42;;;;;;;4.40;1.70;;;;;;;14.12;76.14;98217.02;104654;1274;63350;-24
2022/06/23 01:01:24;;;;;;;3.40;1.10;;;;;;;14.06;76.67;98222.35;104498;1274;74450;-24
2022/06/23 01:04:06;;;;;;;3.80;1.20;;;;;;;14.55;74.80;98224.63;104712;1274;77086;-24
2022/06/23 01:06:39;;;;;;;3.00;1.30;;;;;;;14.83;73.40;98223.52;104680;1272;74085;-24
2022/06/23 01:09:15;;;;;;;1.80;1.60;;;;;;;14.85;73.42;98218.08;104608;1274;62263;-24
2022/06/23 01:11:45;;;;;;;3.10;1.50;;;;;;;14.55;74.16;98220.46;104798;1274;61715;-24
2022/06/23 01:14:34;;;;;;;4.80;1.50;;;;;;;14.39;74.97;98223.73;104708;1272;74539;-24
2022/06/23 01:17:11;;;;;;;2.40;1.50;;;;;;;14.17;75.80;98227.55;104735;1274;77019;-24
2022/06/23 01:19:57;;;;;;;3.50;1.20;;;;;;;14.54;74.48;98232.45;104626;1274;74213;-24
2022/06/23 01:22:27;;;;;;;7.90;1.30;;;;;;;14.75;73.94;98233.69;104888;1274;62911;-24
2022/06/23 01:25:06;;;;;;;3.00;1.70;;;;;;;14.77;73.40;98233.42;104871;1274;62917;-24
2022/06/23 01:28:04;;;;;;;3.60;1.70;;;;;;;14.60;74.07;98235.10;104641;1274;75715;-24
2022/06/23 01:30:55;;;;;;;2.50;1.50;;;;;;;14.39;75.09;98239.50;104744;1274;77144;-24
2022/06/23 01:33:26;;;;;;;2.00;1.20;;;;;;;14.32;75.64;98238.86;104632;1274;75260;-24
2022/06/23 01:36:04;;;;;;;6.70;2.00;;;;;;;14.71;74.06;98235.54;104638;1274;62056;-24
2022/06/23 01:38:34;;;;;;;1.80;1.30;;;;;;;15.04;72.88;98241.27;104660;1272;61695;-25
2022/06/23 01:41:12;;;;;;;2.30;1.70;;;;;;;14.95;72.96;98240.46;104635;1274;76646;-24
2022/06/23 01:43:42;;;;;;;4.30;1.30;;;;;;;14.77;73.75;98238.20;104928;1274;77079;-24
2022/06/23 01:46:14;;;;;;;3.40;1.40;;;;;;;14.57;74.41;98239.46;104762;1274;75650;-24
2022/06/23 01:48:51;;;;;;;1.50;1.40;;;;;;;14.31;75.47;98242.13;104937;1274;63128;-24
2022/06/23 01:51:35;;;;;;;1.70;1.10;;;;;;;14.16;76.28;98246.20;104727;1274;62246;-24
2022/06/23 01:54:07;;;;;;;2.60;1.20;;;;;;;14.50;74.97;98246.84;104714;1274;76292;-24
2022/06/23 01:56:57;;;;;;;3.00;1.30;;;;;;;14.63;74.37;98247.19;104372;1277;76970;-24
2022/06/23 01:59:31;;;;;;;1.80;1.40;;;;;;;14.48;74.77;98256.80;104549;1274;75443;-25
2022/06/23 02:02:11;;;;;;;1.90;1.40;;;;;;;14.20;76.06;98256.77;104735;1274;62003;-24
2022/06/23 02:05:22;;;;;;;3.50;1.50;;;;;;;13.85;77.48;98258.80;104765;1274;61927;-24
2022/06/23 02:07:57;;;;;;;1.90;1.20;;;;;;;13.73;78.12;98261.10;104503;1274;75550;-24
2022/06/23 02:10:31;;;;;;;3.70;1.50;;;;;;;14.22;76.67;98263.21;104615;1274;75875;-24
2022/06/23 02:13:02;;;;;;;1.70;1.30;;;;;;;14.41;75.59;98256.92;104628;1274;75387;-24
2022/06/23 02:15:32;;;;;;;5.90;1.70;;;;;;;14.30;75.94;98257.23;104660;1274;62025;-24
2022/06/23 02:18:04;;;;;;;5.40;2.60;;;;;;;14.04;77.14;98256.90;104714;1274;62782;-24
2022/06/23 02:20:48;;;;;;;3.00;1.90;;;;;;;13.89;77.90;98257.52;104668;1272;76541;-24
2022/06/23 02:23:28;;;;;;;6.90;1.70;;;;;;;13.69;78.81;98264.83;104643;1274;75039;-24
2022/06/23 02:26:06;;;;;;;2.00;1.80;;;;;;;14.25;77.04;98261.95;104687;1274;75473;-24
2022/06/23 02:28:40;;;;;;;3.90;1.50;;;;;;;14.45;75.75;98261.05;104403;1276;63060;-24
2022/06/23 02:31:47;;;;;;;1.90;1.50;;;;;;;14.33;76.08;98267.01;104726;1274;61796;-24
2022/06/23 02:34:23;;;;;;;2.90;1.60;;;;;;;13.97;77.42;98260.81;104642;1274;76581;-24
2022/06/23 02:36:59;;;;;;;2.10;1.30;;;;;;;13.67;78.74;98261.23;104602;1274;76816;-24
2022/06/23 02:39:35;;;;;;;4.90;1.50;;;;;;;13.68;78.95;98254.52;104630;1274;74334;-24
2022/06/23 02:42:13;;;;;;;2.50;1.60;;;;;;;13.97;77.55;98251.20;104652;1274;61980;-24
2022/06/23 02:45:03;;;;;;;1.80;1.20;;;;;;;14.04;77.20;98253.92;104638;1274;62778;-24
2022/06/23 02:47:54;;;;;;;3.10;1.60;;;;;;;13.92;77.77;98259.11;104695;1274;75336;-24
2022/06/23 02:50:36;;;;;;;1.90;1.70;;;;;;;13.79;78.26;98260.44;104733;1274;76992;-24
2022/06/23 02:53:07;;;;;;;3.20;1.30;;;;;;;13.69;79.02;98264.35;104773;1274;75671;-24
2022/06/23 02:55:49;;;;;;;3.30;1.40;;;;;;;14.10;77.33;98261.88;104928;1274;63094;-24
2022/06/23 02:58:29;;;;;;;3.70;1.50;;;;;;;14.36;76.30;98262.32;104890;1274;61785;-24
2022/06/23 03:01:12;;;;;;;1.70;1.60;;;;;;;14.29;76.38;98265.23;104901;1272;76608;-24
2022/06/23 03:03:43;;;;;;;7.50;1.70;;;;;;;14.05;77.77;98266.55;104585;1274;77076;-24
2022/06/23 03:06:18;;;;;;;2.70;1.50;;;;;;;13.87;78.82;98265.47;104578;1273;75084;-24
2022/06/23 03:09:18;;;;;;;1.30;1.20;;;;;;;13.65;79.84;98252.37;104405;1274;63649;-24
2022/06/23 03:11:51;;;;;;;3.20;1.40;;;;;;;14.17;77.90;98263.99;104517;1274;62045;-25
2022/06/23 03:14:34;;;;;;;2.60;1.50;;;;;;;14.32;76.76;98260.65;104852;1274;75352;-25
2022/06/23 03:17:21;;;;;;;3.60;1.50;;;;;;;14.23;77.16;98262.88;104764;1274;77101;-25
2022/06/23 03:20:02;;;;;;;2.00;1.70;;;;;;;13.96;78.38;98257.70;104912;1274;75766;-25
2022/06/23 03:22:43;;;;;;;3.50;1.30;;;;;;;13.85;79.06;98262.04;104703;1274;63522;-25
2022/06/23 03:25:25;;;;;;;1.60;1.40;;;;;;;14.17;77.90;98264.63;104623;1274;61682;-25
2022/06/23 03:28:17;;;;;;;3.50;1.80;;;;;;;14.45;76.82;98274.23;104586;1274;76905;-25
2022/06/23 03:30:50;;;;;;;4.00;1.70;;;;;;;14.31;77.41;98276.47;104582;1274;77253;-24
2022/06/23 03:33:18;;;;;;;4.60;1.80;;;;;;;14.03;78.24;98277.09;104614;1274;74492;-25
2022/06/23 03:35:53;;;;;;;2.80;1.20;;;;;;;13.83;79.24;98271.89;104624;1274;61365;-25
2022/06/23 03:41:54;;;;;;;2.20;1.90;;;;;;;14.40;77.19;98273.91;104606;1274;76457;-25
2022/06/23 03:44:34;;;;;;;2.80;1.60;;;;;;;14.32;77.33;98279.02;104453;1274;77104;-25
2022/06/23 03:47:04;;;;;;;1.70;1.40;;;;;;;14.11;78.13;98280.96;104602;1274;75426;-25
2022/06/23 03:49:51;;;;;;;2.70;1.30;;;;;;;14.07;77.48;98283.77;104392;1274;63017;-24
2022/06/23 03:52:18;;;;;;;1.70;1.40;;;;;;;14.25;76.69;98284.88;104655;1277;62817;-25
2022/06/23 03:54:52;;;;;;;2.40;1.40;;;;;;;14.66;75.14;98294.80;104628;1274;76309;-25
2022/06/23 03:57:31;;;;;;;3.00;1.80;;;;;;;14.77;74.74;98298.30;104678;1275;76741;-25
2022/06/23 04:00:22;;;;;;;6.60;2.00;;;;;;;14.52;74.56;98297.06;104604;1275;75387;-25
2022/06/23 04:03:23;;;;;;;1.90;1.70;;;;;;;14.37;75.79;98306.02;104633;1274;63181;-25
2022/06/23 04:05:56;;;;;;;2.30;1.50;;;;;;;14.37;76.01;98308.21;104449;1274;61698;-24
2022/06/23 04:08:31;;;;;;;4.20;1.70;;;;;;;14.76;74.27;98308.34;104599;1274;75642;-24
2022/06/23 04:14:00;;;;;;;2.70;1.60;;;;;;;14.66;74.22;98306.39;104786;1274;75579;-25
2022/06/23 04:16:27;;;;;;;2.40;1.60;;;;;;;14.51;74.79;98300.67;104739;1274;62991;-25
2022/06/23 04:18:54;;;;;;;3.80;1.80;;;;;;;14.49;75.18;98309.41;104733;1274;63110;-25
2022/06/23 04:21:24;;;;;;;5.50;1.30;;;;;;;14.32;75.57;98304.92;104951;1274;75415;-25
2022/06/23 04:23:53;;;;;;;1.20;1.10;;;;;;;14.65;74.57;98302.83;104508;1274;75963;-25
2022/06/23 04:26:25;;;;;;;3.90;1.50;;;;;;;14.92;73.62;98308.83;104595;1275;75301;-25
2022/06/23 04:29:05;;;;;;;3.40;1.30;;;;;;;14.98;73.64;98319.55;104374;1274;63051;-25
2022/06/23 04:31:34;;;;;;;1.90;1.40;;;;;;;14.80;73.36;98320.60;104559;1274;61556;-25
2022/06/23 04:34:02;;;;;;;2.30;1.50;;;;;;;14.71;74.52;98330.00;104629;1275;76669;-25
2022/06/23 04:36:33;;;;;;;3.30;1.60;;;;;;;14.39;74.93;98321.00;104546;1274;77025;-25
2022/06/23 04:39:03;;;;;;;3.00;1.20;;;;;;;14.40;75.64;98333.80;104656;1277;73379;-25
2022/06/23 04:41:33;;;;;;;2.40;1.60;;;;;;;14.87;74.02;98332.79;104680;1274;62032;-25
2022/06/23 04:44:21;;;;;;;4.90;1.50;;;;;;;15.12;72.80;98330.95;104577;1274;63064;-25
2022/06/23 04:46:54;;;;;;;2.20;1.50;;;;;;;14.89;73.57;98332.72;104736;1274;76331;-24
2022/06/23 04:49:36;;;;;;;2.00;1.60;;;;;;;14.89;73.46;98336.06;104578;1274;75888;-25
2022/06/23 04:52:14;;;;;;;3.50;1.50;;;;;;;14.79;74.15;98339.05;104598;1274;74133;-25
2022/06/23 04:54:47;;;;;;;1.90;1.50;;;;;;;14.64;74.64;98343.80;104647;1274;62000;-25
2022/06/23 04:57:23;;;;;;;1.60;1.20;;;;;;;14.66;74.88;98348.86;104592;1274;62789;-25
2022/06/23 04:59:52;;;;;;;1.80;1.30;;;;;;;15.30;72.41;98346.73;104720;1274;76357;-25
2022/06/23 05:02:19;;;;;;;6.40;1.80;;;;;;;15.62;71.43;98350.13;104653;1275;76729;-25
2022/06/23 05:04:59;;;;;;;2.90;1.80;;;;;;;15.57;71.56;98355.07;104657;1274;73867;-26
2022/06/23 05:07:50;;;;;;;2.90;1.80;;;;;;;15.49;71.72;98353.06;104729;1274;61849;-25
2022/06/23 05:10:31;;;;;;;1.90;1.70;;;;;;;15.33;72.32;98357.45;104604;1274;61818;-25
2022/06/23 05:13:01;;;;;;;3.40;1.90;;;;;;;15.21;72.97;98351.42;104721;1274;74472;-25
2022/06/23 05:15:37;;;;;;;2.70;1.40;;;;;;;15.16;73.86;98352.26;104471;1274;75621;-23
2022/06/23 05:18:27;;;;;;;1.30;1.20;;;;;;;15.58;71.79;98348.34;104624;1274;75205;-24
2022/06/23 05:21:04;;;;;;;1.60;1.50;;;;;;;15.98;69.98;98352.27;104687;1275;63182;-23
2022/06/23 05:23:37;;;;;;;2.10;1.50;;;;;;;15.90;70.67;98356.83;104655;1275;62263;-24
2022/06/23 05:26:25;;;;;;;3.10;1.30;;;;;;;15.82;70.44;98357.58;104634;1274;75233;-24
2022/06/23 05:28:56;;;;;;;2.90;1.10;;;;;;;15.72;71.48;98369.10;104642;1274;75989;-24
2022/06/23 05:31:28;;;;;;;1.90;1.60;;;;;;;15.65;71.60;98364.88;104522;1274;75712;-23
2022/06/23 05:33:55;;;;;;;3.10;1.60;;;;;;;15.57;72.47;98370.85;104939;1272;62056;-23
2022/06/23 05:36:27;;;;;;;5.60;1.30;;;;;;;15.63;72.15;98365.98;104679;1272;61061;-23
2022/06/23 05:38:58;;;;;;;1.70;1.60;;;;;;;16.30;70.77;98369.95;104462;1274;76584;-26
2022/06/23 05:41:30;;;;;;;2.10;1.70;;;;;;;16.43;69.08;98372.92;104717;1272;76004;-23
2022/06/23 05:43:57;;;;;;;2.50;2.00;;;;;;;16.37;69.30;98370.36;104619;1275;75214;-23
2022/06/23 05:46:27;;;;;;;4.60;2.10;;;;;;;16.07;70.57;98372.95;104644;1274;62144;-23
2022/06/23 05:49:18;;;;;;;7.00;2.90;;;;;;;16.05;71.13;98373.16;104624;1274;61135;-23
2022/06/23 05:51:49;;;;;;;11.40;4.90;;;;;;;15.93;71.04;98374.97;104690;1274;76597;-23
2022/06/23 05:54:19;;;;;;;3.90;2.30;;;;;;;15.92;71.29;98383.59;104787;1274;77100;-23
2022/06/23 05:56:47;;;;;;;3.50;2.30;;;;;;;16.02;70.96;98383.80;104713;1274;75302;-23
2022/06/23 05:59:20;;;;;;;6.60;3.60;;;;;;;16.48;69.01;98387.96;104641;1274;62006;-25
2022/06/23 06:01:53;;;;;;;;;;;;;;;16.76;68.28;98390.33;104692;1275;63103;-25
2022/06/23 06:04:59;;;;;;;4.00;2.10;;;;;;;16.82;67.81;98391.75;104621;1272;75545;-24
2022/06/23 06:07:39;;;;;;;2.90;1.50;;;;;;;16.67;68.79;98397.37;104259;1278;77066;-24
2022/06/23 06:10:12;;;;;;;2.60;1.60;;;;;;;16.49;68.96;98389.92;104527;1278;75446;-24
2022/06/23 06:12:40;;;;;;;1.70;1.60;;;;;;;16.44;69.35;98399.86;104243;1278;61704;-24
2022/06/23 06:15:15;;;;;;;2.00;1.80;;;;;;;16.56;70.25;98400.01;104263;1277;62827;-23
2022/06/23 06:17:42;;;;;;;1.50;1.10;;;;;;;16.73;69.68;98398.88;104293;1277;76776;-24
2022/06/23 06:20:10;;;;;;;1.80;1.50;;;;;;;17.14;68.34;98394.17;104317;1278;76701;-23
2022/06/23 06:22:53;;;;;;;1.50;1.40;;;;;;;17.33;67.14;98395.98;104357;1278;74881;-24
2022/06/23 06:25:27;;;;;;;5.50;2.10;;;;;;;17.62;65.52;98395.95;104272;1278;62968;-23
2022/06/23 06:27:56;;;;;;;3.30;1.50;;;;;;;17.91;66.64;98399.12;104295;1280;62862;-23
2022/06/23 06:30:27;;;;;;;3.20;1.40;;;;;;;17.97;65.78;98401.60;104220;1278;75664;-23
2022/06/23 06:32:55;;;;;;;3.30;1.30;;;;;;;18.16;66.04;98404.38;104206;1278;76123;-25
2022/06/23 06:35:25;;;;;;;2.40;1.40;;;;;;;18.21;64.73;98397.53;104478;1277;75607;-23
2022/06/23 06:38:01;;;;;;;2.70;1.20;;;;;;;18.10;64.30;98403.17;104383;1277;61226;-23
2022/06/23 06:40:28;;;;;;;5.80;1.40;;;;;;;18.15;65.68;98412.20;104688;1274;61189;-23
2022/06/23 06:42:58;;;;;;;1.90;1.50;;;;;;;18.11;64.48;98415.52;104665;1274;75308;-23
2022/06/23 06:45:27;;;;;;;3.70;1.30;;;;;;;17.76;65.13;98410.31;104701;1274;77734;-24
2022/06/23 06:47:55;;;;;;;4.30;1.70;;;;;;;17.78;65.86;98419.20;104631;1275;75163;-24
2022/06/23 06:50:31;;;;;;;1.50;1.30;;;;;;;17.82;65.28;98409.77;104602;1274;61929;-24
2022/06/23 06:53:01;;;;;;;2.50;1.70;;;;;;;17.81;64.82;98414.05;104723;1274;62005;-24
2022/06/23 06:55:41;;;;;;;2.40;1.30;;;;;;;17.80;65.29;98413.33;104726;1274;75560;-24
2022/06/23 06:58:21;;;;;;;4.50;1.50;;;;;;;17.85;65.41;98418.46;104526;1274;76060;-24
2022/06/23 07:01:05;;;;;;;3.00;1.70;;;;;;;18.02;65.77;98416.79;104880;1274;74731;-24
2022/06/23 07:03:34;;;;;;;2.90;1.60;;;;;;;18.05;64.74;98416.23;104749;1275;61860;-25
2022/06/23 07:06:06;;;;;;;2.00;1.20;;;;;;;17.97;65.66;98416.73;104753;1274;61767;-24
2022/06/23 07:09:07;;;;;;;2.50;1.50;;;;;;;17.84;65.74;98421.54;104759;1277;76503;-24
2022/06/23 07:11:42;;;;;;;2.00;1.40;;;;;;;17.92;66.16;98421.61;104895;1271;77258;-24
2022/06/23 07:14:36;;;;;;;3.30;1.50;;;;;;;17.85;65.36;98425.73;104659;1275;74156;-24
2022/06/23 07:17:12;;;;;;;4.20;1.70;;;;;;;17.88;66.00;98427.45;104688;1274;61879;-23
2022/06/23 07:19:50;;;;;;;3.40;1.50;;;;;;;18.11;66.06;98419.77;104845;1274;62017;-23
2022/06/23 07:22:24;;;;;;;1.90;1.30;;;;;;;18.36;65.56;98422.66;104825;1274;76328;-24
2022/06/23 07:25:17;;;;;;;2.20;1.70;;;;;;;18.53;65.19;98420.39;104776;1271;75922;-23
2022/06/23 07:27:55;;;;;;;4.20;1.40;;;;;;;18.70;64.47;98423.39;104642;1271;75430;-23
2022/06/23 07:30:25;;;;;;;2.40;2.00;;;;;;;18.87;63.22;98422.61;104642;1274;63063;-23
2022/06/23 07:33:01;;;;;;;7.10;1.40;;;;;;;18.83;63.51;98423.67;104742;1272;61951;-23
2022/06/23 07:35:42;;;;;;;4.60;1.70;;;;;;;18.77;63.99;98421.73;104594;1272;75754;-23
2022/06/23 07:38:10;;;;;;;1.90;1.30;;;;;;;18.78;62.42;98420.84;104644;1272;75760;-23
2022/06/23 07:40:51;;;;;;;3.50;1.60;;;;;;;18.86;63.22;98424.92;104617;1272;75485;-23
2022/06/23 07:43:26;;;;;;;4.80;1.20;;;;;;;19.30;63.87;98426.29;104661;1274;62744;-25
2022/06/23 07:45:55;;;;;;;2.60;1.50;;;;;;;19.73;62.48;98427.04;104675;1272;62828;-23
2022/06/23 07:48:23;;;;;;;3.50;1.60;;;;;;;19.51;60.80;98425.10;104451;1271;76584;-23
2022/06/23 07:50:50;;;;;;;1.60;1.40;;;;;;;19.50;60.50;98422.98;104930;1271;75234;-23
2022/06/23 07:53:36;;;;;;;2.90;1.50;;;;;;;19.63;61.27;98434.52;104734;1274;75395;-23
2022/06/23 07:56:04;;;;;;;4.90;1.50;;;;;;;19.76;60.52;98432.93;104591;1274;62455;-23
2022/06/23 07:58:34;;;;;;;5.40;1.50;;;;;;;19.82;60.23;98431.39;104664;1274;61182;-23
2022/06/23 08:01:10;;;;;;;5.30;1.60;;;;;;;19.65;59.71;98428.99;104881;1274;75744;-23
2022/06/23 08:03:42;;;;;;;2.10;1.50;;;;;;;19.67;60.78;98433.60;104980;1274;77322;-23
2022/06/23 08:06:11;;;;;;;1.70;1.40;;;;;;;19.70;61.04;98437.14;104626;1275;75557;-24
2022/06/23 08:08:39;;;;;;;2.70;1.40;;;;;;;19.59;60.96;98433.68;104676;1271;61837;-23
2022/06/23 08:14:14;;;;;;;4.80;1.60;;;;;;;19.57;61.76;98445.99;104652;1271;76679;-23
2022/06/23 08:16:50;;;;;;;1.80;1.50;;;;;;;19.75;62.65;98447.03;104378;1275;76711;-24
2022/06/23 08:19:44;;;;;;;3.20;1.60;;;;;;;19.93;61.45;98443.55;104594;1274;75504;-24
2022/06/23 08:22:12;;;;;;;;;;;;;;;19.95;61.00;98444.17;104652;1271;62882;-24
2022/06/23 08:24:40;;;;;;;2.10;1.50;;;;;;;20.14;60.99;98443.13;104667;1274;62832;-24
2022/06/23 08:27:18;;;;;;;2.30;1.60;;;;;;;20.02;60.15;98437.68;104611;1274;77352;-24
2022/06/23 08:30:12;;;;;;;2.70;1.30;;;;;;;19.97;60.34;98439.24;104594;1274;76186;-24
2022/06/23 08:32:40;;;;;;;1.90;1.40;;;;;;;20.34;60.35;98445.90;104630;1274;74384;-24
2022/06/23 08:35:15;;;;;;;2.50;1.20;;;;;;;20.55;60.23;98449.36;104695;1274;62129;-24
2022/06/23 08:37:59;;;;;;;1.90;1.40;;;;;;;20.77;59.55;98450.16;104614;1271;62946;-24
2022/06/23 08:40:48;;;;;;;3.20;1.50;;;;;;;20.86;58.59;98449.54;104572;1274;76654;-24
2022/06/23 08:43:25;;;;;;;5.00;1.30;;;;;;;20.66;58.68;98458.39;104640;1272;77143;-24
2022/06/23 08:46:18;;;;;;;3.40;1.50;;;;;;;20.96;57.31;98461.29;104741;1274;75166;-23
2022/06/23 08:48:51;;;;;;;4.80;1.10;;;;;;;21.56;56.30;98459.50;105066;1274;62224;-23
2022/06/23 08:51:55;;;;;;;6.10;1.10;;;;;;;21.56;53.78;98462.92;104857;1274;61689;-23
2022/06/23 08:54:53;;;;;;;3.10;1.20;;;;;;;21.66;54.17;98464.84;104736;1274;76828;-24
2022/06/23 08:57:58;;;;;;;2.30;1.10;;;;;;;22.08;54.57;98465.71;104625;1272;77034;-23
2022/06/23 09:00:39;;;;;;;1.70;1.30;;;;;;;22.17;53.85;98468.14;104659;1274;74511;-24
2022/06/23 09:03:16;;;;;;;4.30;0.90;;;;;;;21.98;53.77;98469.73;104599;1274;63104;-23
2022/06/23 09:05:54;;;;;;;5.30;1.30;;;;;;;22.07;53.64;98476.60;104582;1276;62133;-23
2022/06/23 09:08:27;;;;;;;7.10;1.10;;;;;;;22.07;54.03;98474.23;104750;1275;76623;-24
2022/06/23 09:11:22;;;;;;;1.50;1.10;;;;;;;22.04;54.59;98474.96;104710;1274;75870;-24
2022/06/23 09:13:55;;;;;;;1.10;1.00;;;;;;;22.21;54.77;98481.77;104729;1275;74144;-23
2022/06/23 09:16:34;;;;;;;2.30;1.10;;;;;;;22.12;53.82;98470.57;104600;1274;62984;-24
2022/06/23 09:19:16;;;;;;;1.80;0.80;;;;;;;22.10;53.19;98481.47;104683;1274;62036;-24
2022/06/23 09:21:59;;;;;;;3.60;0.90;;;;;;;22.44;50.42;98485.42;104546;1275;76682;-24
2022/06/23 09:24:52;;;;;;;4.70;1.10;;;;;;;22.76;51.06;98480.94;104725;1274;77451;-24
2022/06/23 09:27:57;;;;;;;1.80;1.20;;;;;;;22.88;49.90;98478.17;104644;1274;73687;-24
2022/06/23 09:30:37;;;;;;;2.70;1.10;;;;;;;23.01;48.26;98476.39;104765;1274;62782;-23
2022/06/23 09:33:04;;;;;;;2.20;1.10;;;;;;;22.73;48.27;98491.88;104640;1274;62921;-22
2022/06/23 09:36:00;;;;;;;3.70;1.10;;;;;;;23.08;47.14;98489.58;104734;1274;76539;-23
2022/06/23 09:38:42;;;;;;;2.40;0.90;;;;;;;23.14;47.48;98482.21;105059;1274;75770;-23
2022/06/23 09:41:18;;;;;;;1.10;0.80;;;;;;;22.81;48.00;98492.02;104743;1274;75430;-23
2022/06/23 09:43:59;;;;;;;1.60;0.90;;;;;;;23.32;48.10;98485.33;104663;1274;61096;-24
2022/06/23 09:46:36;;;;;;;2.70;1.00;;;;;;;23.58;47.54;98482.27;104710;1274;62850;-23
2022/06/23 09:49:15;;;;;;;3.30;0.90;;;;;;;23.79;46.38;98484.73;104670;1275;75410;-23
2022/06/23 09:52:09;;;;;;;1.60;1.00;;;;;;;24.27;45.63;98486.64;104593;1274;76008;-23
2022/06/23 09:55:01;;;;;;;2.70;1.30;;;;;;;23.79;44.19;98481.48;105036;1273;75271;-23
2022/06/23 09:58:06;;;;;;;2.00;1.20;;;;;;;23.59;44.80;98486.94;105048;1274;62267;-23
2022/06/23 10:00:37;;;;;;;1.10;1.00;;;;;;;23.89;43.60;98482.50;105067;1274;63086;-22
2022/06/23 10:03:10;;;;;;;1.90;1.30;;;;;;;23.92;44.84;98484.20;105116;1274;74092;-23
2022/06/23 10:05:44;;;;;;;2.30;1.20;;;;;;;23.76;43.20;98483.57;104960;1274;75741;-23
2022/06/23 10:08:18;;;;;;;2.20;1.10;;;;;;;23.12;44.13;98484.01;104602;1274;75744;-22
2022/06/23 10:11:00;;;;;;;2.90;1.40;;;;;;;23.52;45.84;98484.16;105080;1271;62152;-22
2022/06/23 10:13:45;;;;;;;3.60;0.90;;;;;;;23.53;44.27;98487.79;104853;1274;63493;-23
2022/06/23 10:16:47;;;;;;;3.50;0.90;;;;;;;23.77;45.12;98489.43;104605;1274;76597;-23
2022/06/23 10:19:20;;;;;;;5.00;1.00;;;;;;;23.98;43.22;98488.59;104682;1274;75691;-22
2022/06/23 10:22:00;;;;;;;3.40;0.90;;;;;;;24.06;44.33;98485.58;104594;1274;74367;-23
2022/06/23 10:24:54;;;;;;;3.60;0.80;;;;;;;24.52;44.41;98484.32;104785;1271;61983;-23
2022/06/23 10:28:13;;;;;;;4.60;1.20;;;;;;;24.41;44.34;98490.50;104744;1274;63011;-23
2022/06/23 10:31:14;;;;;;;5.90;1.30;;;;;;;23.79;44.92;98492.52;104574;1276;76440;-23
2022/06/23 10:33:47;;;;;;;3.20;0.80;;;;;;;23.40;44.33;98486.02;104485;1275;76151;-23
2022/06/23 10:36:33;;;;;;;2.30;1.00;;;;;;;23.43;46.96;98495.10;104631;1271;75185;-23
2022/06/23 10:39:06;;;;;;;1.30;1.00;;;;;;;23.46;46.01;98502.79;104584;1274;62464;-23
2022/06/23 10:41:39;;;;;;;4.00;1.30;;;;;;;23.00;46.52;98507.39;104581;1275;63328;-23
2022/06/23 10:44:26;;;;;;;1.00;0.80;;;;;;;23.00;47.46;98509.26;104579;1274;76613;-23
2022/06/23 10:47:05;;;;;;;3.00;1.10;;;;;;;22.38;48.54;98508.00;104620;1274;76913;-23
2022/06/23 10:49:52;;;;;;;5.30;0.90;;;;;;;22.35;49.46;98511.77;104666;1274;75405;-23
2022/06/23 10:52:41;;;;;;;1.70;1.20;;;;;;;22.44;49.72;98511.98;104611;1274;62468;-24
2022/06/23 10:55:15;;;;;;;2.20;1.10;;;;;;;22.64;49.62;98514.90;104636;1274;61106;-24
2022/06/23 10:57:42;;;;;;;3.50;1.10;;;;;;;22.54;48.92;98515.42;104699;1274;76591;-23
2022/06/23 11:00:17;;;;;;;1.20;1.10;;;;;;;22.47;49.73;98516.74;104625;1274;77069;-23
2022/06/23 11:02:44;;;;;;;2.60;1.00;;;;;;;22.15;49.98;98514.73;104686;1274;74033;-23
2022/06/23 11:05:18;;;;;;;2.50;1.00;;;;;;;21.90;50.86;98519.81;104597;1274;61888;-24
2022/06/23 11:08:16;;;;;;;8.30;1.40;;;;;;;21.90;50.78;98520.42;104620;1273;61045;-25
2022/06/23 11:11:02;;;;;;;1.60;1.00;;;;;;;21.85;51.80;98518.52;104703;1274;76604;-24
2022/06/23 11:14:07;;;;;;;1.20;0.80;;;;;;;21.80;51.40;98520.02;104714;1274;76098;-23
2022/06/23 11:16:47;;;;;;;2.60;1.40;;;;;;;21.81;51.44;98524.54;105010;1274;75371;-23
2022/06/23 11:19:23;;;;;;;5.80;1.00;;;;;;;21.80;51.22;98533.27;104722;1272;62161;-24
2022/06/23 11:22:24;;;;;;;2.90;1.30;;;;;;;21.80;51.71;98536.61;104331;1273;61544;-24
2022/06/23 11:25:11;;;;;;;1.20;1.00;;;;;;;21.82;52.30;98533.91;104790;1271;76247;-24
2022/06/23 11:27:51;;;;;;;4.50;1.00;;;;;;;21.73;52.66;98533.21;104621;1274;76003;-23
2022/06/23 11:31:11;;;;;;;3.00;1.20;;;;;;;21.71;52.66;98536.77;104627;1274;74765;-24
2022/06/23 11:34:00;;;;;;;0.90;0.80;;;;;;;21.65;53.05;98541.52;104136;1277;63499;-24
2022/06/23 11:37:02;;;;;;;2.90;1.20;;;;;;;21.70;53.16;98535.98;104616;1274;61947;-24
2022/06/23 11:39:47;;;;;;;1.60;1.20;;;;;;;21.86;53.94;98535.12;104591;1275;76349;-24
2022/06/23 11:42:18;;;;;;;3.20;1.40;;;;;;;21.85;52.84;98536.66;104757;1274;75676;-23
2022/06/23 11:45:09;;;;;;;2.30;1.20;;;;;;;22.01;53.26;98533.86;104750;1274;74115;-25
2022/06/23 11:47:49;;;;;;;1.40;0.90;;;;;;;22.00;52.41;98535.55;104751;1274;63232;-23
2022/06/23 11:50:31;;;;;;;2.20;1.00;;;;;;;21.92;51.77;98532.08;104686;1274;62121;-23
2022/06/23 11:53:03;;;;;;;4.50;1.20;;;;;;;22.06;52.73;98537.02;104627;1274;75527;-23
2022/06/23 11:55:37;;;;;;;1.10;0.90;;;;;;;22.05;51.66;98535.51;104633;1272;75923;-24
2022/06/23 11:58:46;;;;;;;3.70;1.10;;;;;;;22.03;51.30;98533.04;104537;1274;74471;-23
2022/06/23 12:01:23;;;;;;;2.50;1.20;;;;;;;22.01;50.99;98534.14;104729;1274;61820;-24
2022/06/23 12:04:21;;;;;;;1.20;1.00;;;;;;;22.09;52.27;98538.34;104485;1274;63078;-24
2022/06/23 12:07:25;;;;;;;3.50;1.60;;;;;;;22.34;51.94;98542.19;104661;1271;77067;-24
2022/06/23 12:10:07;;;;;;;1.80;0.90;;;;;;;22.46;51.28;98545.80;105063;1274;77477;-24
2022/06/23 12:12:35;;;;;;;1.30;1.00;;;;;;;22.40;50.71;98542.16;104755;1274;75502;-23
2022/06/23 12:15:04;;;;;;;1.60;1.20;;;;;;;22.26;50.75;98539.66;104664;1274;63220;-24
2022/06/23 12:17:37;;;;;;;2.10;1.10;;;;;;;22.43;50.83;98543.05;104702;1271;61961;-24
2022/06/23 12:20:46;;;;;;;3.90;1.20;;;;;;;22.82;51.04;98541.67;104371;1274;75513;-24
2022/06/23 12:23:34;;;;;;;2.10;1.00;;;;;;;22.90;49.77;98537.00;104541;1274;77008;-24
2022/06/23 12:26:19;;;;;;;2.90;1.00;;;;;;;23.09;50.70;98538.79;104604;1274;73861;-24
2022/06/23 12:29:00;;;;;;;1.40;1.00;;;;;;;23.08;49.36;98541.61;104682;1272;61734;-24
2022/06/23 12:31:31;;;;;;;4.10;1.10;;;;;;;23.23;49.67;98544.55;104701;1271;61813;-24